1860 NOT_NAMED (1860336S08087)


IBTrACS version v04r00. Visit IBTrACS website for data access.
Please direct all questions to the IBTrACS Q and A forum

Storm track - Intensity - Wind Radii - Intensity Data - Source Data - All data

Summary Information

Storm ID 1860336S08087
Start Dec 1 06Z
End Dec 7 06Z
ATCF IDs
Track status Best track data.

Storm track plot

Map of storm track

Intensity plots

No Intensity information for this storm


Radial wind information

No radial wind information for this storm


Position and Intensity Table

BASIN ISO_TIME_________ NATURE LAT LON
degrees north degrees east
SI 1860-12-01 06:00:00 NR -8.30 86.80
SI 09:00:00 NR -8.34 86.67
SI 12:00:00 NR -8.39 86.53
SI 15:00:00 NR -8.44 86.40
SI 18:00:00 NR -8.48 86.26
SI 21:00:00 NR -8.53 86.13
SI 1860-12-02 00:00:00 NR -8.58 85.99
SI 03:00:00 NR -8.64 85.84
SI 06:00:00 NR -8.70 85.70
SI 09:00:00 NR -8.76 85.55
SI 12:00:00 NR -8.83 85.40
SI 15:00:00 NR -8.90 85.25
SI 18:00:00 NR -8.98 85.09
SI 21:00:00 NR -9.05 84.92
SI 1860-12-03 00:00:00 NR -9.13 84.75
SI 03:00:00 NR -9.22 84.58
SI 06:00:00 NR -9.30 84.40
SI 09:00:00 NR -9.37 84.25
SI 12:00:00 NR -9.43 84.10
SI 15:00:00 NR -9.50 83.94
SI 18:00:00 NR -9.57 83.76
SI 21:00:00 NR -9.66 83.57
SI 1860-12-04 00:00:00 NR -9.76 83.35
SI 03:00:00 NR -9.87 83.09
SI 06:00:00 NR -10.00 82.80
SI 09:00:00 NR -10.15 82.45
SI 12:00:00 NR -10.32 82.07
SI 15:00:00 NR -10.50 81.65
SI 18:00:00 NR -10.70 81.20
SI 21:00:00 NR -10.91 80.73
SI 1860-12-05 00:00:00 NR -11.14 80.26
SI 03:00:00 NR -11.36 79.78
SI 06:00:00 NR -11.60 79.30
SI 09:00:00 NR -11.86 78.81
SI 12:00:00 NR -12.13 78.30
SI 15:00:00 NR -12.40 77.80
SI 18:00:00 NR -12.67 77.32
SI 21:00:00 NR -12.93 76.85
SI 1860-12-06 00:00:00 NR -13.18 76.42
SI 03:00:00 NR -13.40 76.03
SI 06:00:00 NR -13.60 75.70
SI 09:00:00 NR -13.76 75.43
SI 12:00:00 NR -13.90 75.22
SI 15:00:00 NR -14.00 75.06
SI 18:00:00 NR -14.09 74.94
SI 21:00:00 NR -14.16 74.85
SI 1860-12-07 00:00:00 NR -14.21 74.78
SI 03:00:00 NR -14.26 74.74
SI 06:00:00 NR -14.30 74.70

Source Information

Agency Information
USA
TOKYO
CMA
HKO
NEWDELHI
REUNION WMO-Best-Tracks.txt:Line=314:xxxx860047
BOM
NADI
WELLINGTON
DS824
TD9636
TD9635
NEUMANN
MLC

All available IBTrACS Data

SEASON BASIN SUBBASIN ISO_TIME_________ NATURE LAT LON WMO AGENCY DIST2LAND LANDFALL IFLAG USA SSHS REUNION LAT REUNION LON REUNION TYPE REUNION TNUM STORM SPEED STORM DIR
Year degrees north degrees east km km 1 degrees north degrees east 1 kts degrees
1861 SI MM 1860-12-01 06:00:00 NR -8.30 86.80 1531 1531 _____O________ -1 -8.30 86.80 99 9.90 3 251
1861 SI MM 09:00:00 NR -8.34 86.67 1540 1540 _____P________ -1 -8.34 86.67 99 3 251
1861 SI MM 12:00:00 NR -8.39 86.53 1565 1565 _____P________ -1 -8.39 86.53 99 3 251
1861 SI MM 15:00:00 NR -8.44 86.40 1574 1574 _____P________ -1 -8.44 86.40 99 3 251
1861 SI MM 18:00:00 NR -8.48 86.26 1589 1589 _____P________ -1 -8.48 86.26 99 3 250
1861 SI MM 21:00:00 NR -8.53 86.13 1608 1608 _____P________ -1 -8.53 86.13 99 3 250
1861 SI MM 1860-12-02 00:00:00 NR -8.58 85.99 1623 1623 _____P________ -1 -8.58 85.99 99 3 249
1861 SI MM 03:00:00 NR -8.64 85.84 1643 1643 _____P________ -1 -8.64 85.84 99 3 248
1861 SI MM 06:00:00 NR -8.70 85.70 1658 1658 _____O________ -1 -8.70 85.70 99 9.90 3 247
1861 SI MM 09:00:00 NR -8.76 85.55 1673 1673 _____P________ -1 -8.76 85.55 99 3 246
1861 SI MM 12:00:00 NR -8.83 85.40 1692 1692 _____P________ -1 -8.83 85.40 99 3 245
1861 SI MM 15:00:00 NR -8.90 85.25 1717 1717 _____P________ -1 -8.90 85.25 99 3 245
1861 SI MM 18:00:00 NR -8.98 85.09 1732 1732 _____P________ -1 -8.98 85.09 99 4 245
1861 SI MM 21:00:00 NR -9.05 84.92 1747 1744 _____P________ -1 -9.05 84.92 99 4 244
1861 SI MM 1860-12-03 00:00:00 NR -9.13 84.75 1744 1741 _____P________ -1 -9.13 84.75 99 4 244
1861 SI MM 03:00:00 NR -9.22 84.58 1749 1746 _____P________ -1 -9.22 84.58 99 4 245
1861 SI MM 06:00:00 NR -9.30 84.40 1754 1751 _____O________ -1 -9.30 84.40 99 9.90 4 245
1861 SI MM 09:00:00 NR -9.37 84.25 1760 1757 _____P________ -1 -9.37 84.25 99 3 246
1861 SI MM 12:00:00 NR -9.43 84.10 1757 1757 _____P________ -1 -9.43 84.10 99 3 247
1861 SI MM 15:00:00 NR -9.50 83.94 1763 1761 _____P________ -1 -9.50 83.94 99 4 247
1861 SI MM 18:00:00 NR -9.57 83.76 1772 1768 _____P________ -1 -9.57 83.76 99 4 246
1861 SI MM 21:00:00 NR -9.66 83.57 1779 1775 _____P________ -1 -9.66 83.57 99 4 246
1861 SI MM 1860-12-04 00:00:00 NR -9.76 83.35 1784 1780 _____P________ -1 -9.76 83.35 99 5 246
1861 SI MM 03:00:00 NR -9.87 83.09 1791 1788 _____P________ -1 -9.87 83.09 99 6 246
1861 SI MM 06:00:00 NR -10.00 82.80 1798 1796 _____O________ -1 -10.00 82.80 99 9.90 7 246
1861 SI MM 09:00:00 NR -10.15 82.45 1816 1812 _____P________ -1 -10.15 82.45 99 8 246
1861 SI MM 12:00:00 NR -10.32 82.07 1822 1821 _____P________ -1 -10.32 82.07 99 9 246
1861 SI MM 15:00:00 NR -10.50 81.65 1840 1840 _____P________ -1 -10.50 81.65 99 9 246
1861 SI MM 18:00:00 NR -10.70 81.20 1861 1860 _____P________ -1 -10.70 81.20 99 10 245
1861 SI MM 21:00:00 NR -10.91 80.73 1882 1882 _____P________ -1 -10.91 80.73 99 10 245
1861 SI MM 1860-12-05 00:00:00 NR -11.14 80.26 1905 1905 _____P________ -1 -11.14 80.26 99 10 244
1861 SI MM 03:00:00 NR -11.36 79.78 1940 1940 _____P________ -1 -11.36 79.78 99 11 244
1861 SI MM 06:00:00 NR -11.60 79.30 reunion 1966 1966 _____O________ -1 -11.60 79.30 99 9.90 11 243
1861 SI MM 09:00:00 NR -11.86 78.81 2004 2004 _____P________ -1 -11.86 78.81 99 11 242
1861 SI MM 12:00:00 NR -12.13 78.30 2032 2032 _____P________ -1 -12.13 78.30 99 11 241
1861 SI MM 15:00:00 NR -12.40 77.80 2073 2073 _____P________ -1 -12.40 77.80 99 11 241
1861 SI MM 18:00:00 NR -12.67 77.32 2115 2115 _____P________ -1 -12.67 77.32 99 11 240
1861 SI MM 21:00:00 NR -12.93 76.85 2145 2132 _____P________ -1 -12.93 76.85 99 10 240
1861 SI MM 1860-12-06 00:00:00 NR -13.18 76.42 2132 2093 _____P________ -1 -13.18 76.42 99 9 239
1861 SI MM 03:00:00 NR -13.40 76.03 2083 2044 _____P________ -1 -13.40 76.03 99 8 239
1861 SI MM 06:00:00 NR -13.60 75.70 reunion 2044 2006 _____O________ -1 -13.60 75.70 99 9.90 7 238
1861 SI MM 09:00:00 NR -13.76 75.43 2006 1981 _____P________ -1 -13.76 75.43 99 6 238
1861 SI MM 12:00:00 NR -13.90 75.22 1981 1967 _____P________ -1 -13.90 75.22 99 4 237
1861 SI MM 15:00:00 NR -14.00 75.06 1967 1943 _____P________ -1 -14.00 75.06 99 3 235
1861 SI MM 18:00:00 NR -14.09 74.94 1943 1938 _____P________ -1 -14.09 74.94 99 3 233
1861 SI MM 21:00:00 NR -14.16 74.85 1928 1928 _____P________ -1 -14.16 74.85 99 2 231
1861 SI MM 1860-12-07 00:00:00 NR -14.21 74.78 1928 1914 _____P________ -1 -14.21 74.78 99 1 227
1861 SI MM 03:00:00 NR -14.26 74.74 1914 1914 _____P________ -1 -14.26 74.74 99 1 222
1861 SI MM 06:00:00 NR -14.30 74.70 reunion 1914 _____O________ -1 -14.30 74.70 99 9.90 1 221